sensor_id;sensor_type;location;lat;lon;timestamp;pressure;altitude;pressure_sealevel;temperature
18161;BMP280;9205;52.032;4.314;2024-03-17T00:01:40;102196.41;;;9.69
18161;BMP280;9205;52.032;4.314;2024-03-17T00:04:08;102197.25;;;9.68
18161;BMP280;9205;52.032;4.314;2024-03-17T00:06:36;102198.94;;;9.68
18161;BMP280;9205;52.032;4.314;2024-03-17T00:09:02;102186.25;;;9.69
18161;BMP280;9205;52.032;4.314;2024-03-17T00:11:32;102185.41;;;9.66
18161;BMP280;9205;52.032;4.314;2024-03-17T00:13:59;102186.25;;;9.65
18161;BMP280;9205;52.032;4.314;2024-03-17T00:16:26;102179.50;;;9.65
18161;BMP280;9205;52.032;4.314;2024-03-17T00:18:53;102178.66;;;9.66
18161;BMP280;9205;52.032;4.314;2024-03-17T00:21:22;102187.09;;;9.65
18161;BMP280;9205;52.032;4.314;2024-03-17T00:23:50;102179.47;;;9.68
18161;BMP280;9205;52.032;4.314;2024-03-17T00:26:17;102175.28;;;9.69
18161;BMP280;9205;52.032;4.314;2024-03-17T00:28:45;102178.63;;;9.69
18161;BMP280;9205;52.032;4.314;2024-03-17T00:31:16;102182.03;;;9.70
18161;BMP280;9205;52.032;4.314;2024-03-17T00:33:43;102175.25;;;9.72
18161;BMP280;9205;52.032;4.314;2024-03-17T00:36:11;102169.38;;;9.74
18161;BMP280;9205;52.032;4.314;2024-03-17T00:38:38;102172.72;;;9.72
18161;BMP280;9205;52.032;4.314;2024-03-17T00:41:05;102171.88;;;9.73
18161;BMP280;9205;52.032;4.314;2024-03-17T00:43:32;102170.19;;;9.76
18161;BMP280;9205;52.032;4.314;2024-03-17T00:45:59;102174.44;;;9.77
18161;BMP280;9205;52.032;4.314;2024-03-17T00:48:25;102162.63;;;9.82
18161;BMP280;9205;52.032;4.314;2024-03-17T00:50:56;102165.16;;;9.84
18161;BMP280;9205;52.032;4.314;2024-03-17T00:53:22;102170.22;;;9.84
18161;BMP280;9205;52.032;4.314;2024-03-17T00:55:55;102155.84;;;9.81
18161;BMP280;9205;52.032;4.314;2024-03-17T00:58:24;102159.22;;;9.82
18161;BMP280;9205;52.032;4.314;2024-03-17T01:00:51;102159.22;;;9.83
18161;BMP280;9205;52.032;4.314;2024-03-17T01:03:18;102163.47;;;9.83
18161;BMP280;9205;52.032;4.314;2024-03-17T01:05:46;102155.00;;;9.84
18161;BMP280;9205;52.032;4.314;2024-03-17T01:08:14;102154.97;;;9.81
18161;BMP280;9205;52.032;4.314;2024-03-17T01:10:42;102150.78;;;9.81
18161;BMP280;9205;52.032;4.314;2024-03-17T01:13:10;102157.53;;;9.82
18161;BMP280;9205;52.032;4.314;2024-03-17T01:15:39;102144.00;;;9.80
18161;BMP280;9205;52.032;4.314;2024-03-17T01:18:06;102145.66;;;9.80
18161;BMP280;9205;52.032;4.314;2024-03-17T01:20:35;102144.81;;;9.81
18161;BMP280;9205;52.032;4.314;2024-03-17T01:23:04;102144.81;;;9.81
18161;BMP280;9205;52.032;4.314;2024-03-17T01:25:33;102132.97;;;9.80
18161;BMP280;9205;52.032;4.314;2024-03-17T01:28:03;102138.06;;;9.80
18161;BMP280;9205;52.032;4.314;2024-03-17T01:30:31;102127.91;;;9.80
18161;BMP280;9205;52.032;4.314;2024-03-17T01:33:00;102130.44;;;9.78
18161;BMP280;9205;52.032;4.314;2024-03-17T01:35:27;102137.22;;;9.79
18161;BMP280;9205;52.032;4.314;2024-03-17T01:37:54;102133.00;;;9.77
18161;BMP280;9205;52.032;4.314;2024-03-17T01:40:20;102119.44;;;9.75
18161;BMP280;9205;52.032;4.314;2024-03-17T01:42:48;102112.69;;;9.72
18161;BMP280;9205;52.032;4.314;2024-03-17T01:45:28;102113.50;;;9.71
18161;BMP280;9205;52.032;4.314;2024-03-17T01:47:59;102115.22;;;9.72
18161;BMP280;9205;52.032;4.314;2024-03-17T01:50:30;102110.97;;;9.71
18161;BMP280;9205;52.032;4.314;2024-03-17T01:53:02;102104.19;;;9.72
18161;BMP280;9205;52.032;4.314;2024-03-17T01:55:31;102099.13;;;9.72
18161;BMP280;9205;52.032;4.314;2024-03-17T01:58:00;102102.50;;;9.74
18161;BMP280;9205;52.032;4.314;2024-03-17T02:00:26;102092.38;;;9.74
18161;BMP280;9205;52.032;4.314;2024-03-17T02:02:56;102097.44;;;9.72
18161;BMP280;9205;52.032;4.314;2024-03-17T02:05:22;102099.16;;;9.73
18161;BMP280;9205;52.032;4.314;2024-03-17T02:07:50;102091.50;;;9.72
18161;BMP280;9205;52.032;4.314;2024-03-17T02:10:16;102089.00;;;9.73
18161;BMP280;9205;52.032;4.314;2024-03-17T02:12:43;102083.91;;;9.72
18161;BMP280;9205;52.032;4.314;2024-03-17T02:15:10;102083.91;;;9.69
18161;BMP280;9205;52.032;4.314;2024-03-17T02:17:37;102080.53;;;9.71
18161;BMP280;9205;52.032;4.314;2024-03-17T02:20:06;102086.44;;;9.72
18161;BMP280;9205;52.032;4.314;2024-03-17T02:22:35;102080.53;;;9.74
18161;BMP280;9205;52.032;4.314;2024-03-17T02:25:02;102082.22;;;9.77
18161;BMP280;9205;52.032;4.314;2024-03-17T02:27:29;102080.56;;;9.79
18161;BMP280;9205;52.032;4.314;2024-03-17T02:29:56;102071.22;;;9.76
18161;BMP280;9205;52.032;4.314;2024-03-17T02:32:23;102070.41;;;9.79
18161;BMP280;9205;52.032;4.314;2024-03-17T02:34:51;102059.38;;;9.83
18161;BMP280;9205;52.032;4.314;2024-03-17T02:37:17;102058.53;;;9.84
18161;BMP280;9205;52.032;4.314;2024-03-17T02:39:46;102059.41;;;9.86
18161;BMP280;9205;52.032;4.314;2024-03-17T02:42:12;102057.69;;;9.86
18161;BMP280;9205;52.032;4.314;2024-03-17T02:44:40;102048.41;;;9.88
18161;BMP280;9205;52.032;4.314;2024-03-17T02:47:08;102050.09;;;9.91
18161;BMP280;9205;52.032;4.314;2024-03-17T02:49:36;102050.91;;;9.91
18161;BMP280;9205;52.032;4.314;2024-03-17T02:52:07;102045.84;;;9.91
18161;BMP280;9205;52.032;4.314;2024-03-17T02:54:35;102036.56;;;9.92
18161;BMP280;9205;52.032;4.314;2024-03-17T02:57:06;102040.78;;;9.94
18161;BMP280;9205;52.032;4.314;2024-03-17T02:59:33;102043.34;;;9.99
18161;BMP280;9205;52.032;4.314;2024-03-17T03:02:01;102042.50;;;10.00
18161;BMP280;9205;52.032;4.314;2024-03-17T03:04:29;102042.50;;;10.04
18161;BMP280;9205;52.032;4.314;2024-03-17T03:06:56;102035.72;;;10.06
18161;BMP280;9205;52.032;4.314;2024-03-17T03:09:23;102035.72;;;10.09
18161;BMP280;9205;52.032;4.314;2024-03-17T03:11:57;102035.72;;;10.15
18161;BMP280;9205;52.032;4.314;2024-03-17T03:14:26;102032.34;;;10.17
18161;BMP280;9205;52.032;4.314;2024-03-17T03:16:54;102013.69;;;10.18
18161;BMP280;9205;52.032;4.314;2024-03-17T03:19:21;102004.38;;;10.20
18161;BMP280;9205;52.032;4.314;2024-03-17T03:21:48;102005.25;;;10.21
18161;BMP280;9205;52.032;4.314;2024-03-17T03:24:16;101991.69;;;10.20
18161;BMP280;9205;52.032;4.314;2024-03-17T03:26:43;101996.78;;;10.17
18161;BMP280;9205;52.032;4.314;2024-03-17T03:29:11;101996.78;;;10.19
18161;BMP280;9205;52.032;4.314;2024-03-17T03:31:41;101985.78;;;10.15
18161;BMP280;9205;52.032;4.314;2024-03-17T03:34:08;101984.94;;;10.12
18161;BMP280;9205;52.032;4.314;2024-03-17T03:36:38;101986.63;;;10.13
18161;BMP280;9205;52.032;4.314;2024-03-17T03:39:07;101983.22;;;10.14
18161;BMP280;9205;52.032;4.314;2024-03-17T03:41:37;101983.25;;;10.15
18161;BMP280;9205;52.032;4.314;2024-03-17T03:44:05;101975.59;;;10.17
18161;BMP280;9205;52.032;4.314;2024-03-17T03:46:32;101970.53;;;10.15
18161;BMP280;9205;52.032;4.314;2024-03-17T03:49:01;101972.22;;;10.13
18161;BMP280;9205;52.032;4.314;2024-03-17T03:51:28;101965.47;;;10.15
18161;BMP280;9205;52.032;4.314;2024-03-17T03:53:55;101962.06;;;10.16
18161;BMP280;9205;52.032;4.314;2024-03-17T03:56:23;101964.59;;;10.18
18161;BMP280;9205;52.032;4.314;2024-03-17T03:58:51;101970.50;;;10.18
18161;BMP280;9205;52.032;4.314;2024-03-17T04:01:19;101962.91;;;10.20
18161;BMP280;9205;52.032;4.314;2024-03-17T04:03:48;101964.59;;;10.15
18161;BMP280;9205;52.032;4.314;2024-03-17T04:06:17;101967.16;;;10.16
18161;BMP280;9205;52.032;4.314;2024-03-17T04:08:44;101969.69;;;10.16
18161;BMP280;9205;52.032;4.314;2024-03-17T04:11:11;101967.16;;;10.16
18161;BMP280;9205;52.032;4.314;2024-03-17T04:13:39;101965.47;;;10.15
18161;BMP280;9205;52.032;4.314;2024-03-17T04:16:08;101965.44;;;10.18
18161;BMP280;9205;52.032;4.314;2024-03-17T04:18:36;101968.84;;;10.19
18161;BMP280;9205;52.032;4.314;2024-03-17T04:21:05;101957.00;;;10.16
18161;BMP280;9205;52.032;4.314;2024-03-17T04:23:35;101952.75;;;10.15
18161;BMP280;9205;52.032;4.314;2024-03-17T04:26:04;101950.22;;;10.11
18161;BMP280;9205;52.032;4.314;2024-03-17T04:28:33;101956.16;;;10.10
18161;BMP280;9205;52.032;4.314;2024-03-17T04:31:05;101960.41;;;10.10
18161;BMP280;9205;52.032;4.314;2024-03-17T04:33:33;101950.25;;;10.10
18161;BMP280;9205;52.032;4.314;2024-03-17T04:36:02;101952.78;;;10.10
18161;BMP280;9205;52.032;4.314;2024-03-17T04:38:29;101956.16;;;10.10
18161;BMP280;9205;52.032;4.314;2024-03-17T04:40:58;101946.81;;;10.11
18161;BMP280;9205;52.032;4.314;2024-03-17T04:43:31;101960.38;;;10.13
18161;BMP280;9205;52.032;4.314;2024-03-17T04:46:04;101951.91;;;10.13
18161;BMP280;9205;52.032;4.314;2024-03-17T04:48:33;101956.16;;;10.13
18161;BMP280;9205;52.032;4.314;2024-03-17T04:51:01;101945.13;;;10.14
18161;BMP280;9205;52.032;4.314;2024-03-17T04:53:28;101940.06;;;10.13
18161;BMP280;9205;52.032;4.314;2024-03-17T04:56:02;101933.28;;;10.12
18161;BMP280;9205;52.032;4.314;2024-03-17T04:58:31;101933.28;;;10.12
18161;BMP280;9205;52.032;4.314;2024-03-17T05:01:03;101937.53;;;10.13
18161;BMP280;9205;52.032;4.314;2024-03-17T05:03:30;101940.06;;;10.13
18161;BMP280;9205;52.032;4.314;2024-03-17T05:06:00;101941.75;;;10.13
18161;BMP280;9205;52.032;4.314;2024-03-17T05:08:28;101936.66;;;10.15
18161;BMP280;9205;52.032;4.314;2024-03-17T05:11:01;101938.38;;;10.12
18161;BMP280;9205;52.032;4.314;2024-03-17T05:13:32;101939.22;;;10.11
18161;BMP280;9205;52.032;4.314;2024-03-17T05:16:00;101929.94;;;10.10
18161;BMP280;9205;52.032;4.314;2024-03-17T05:18:28;101937.56;;;10.10
18161;BMP280;9205;52.032;4.314;2024-03-17T05:20:59;101942.59;;;10.08
18161;BMP280;9205;52.032;4.314;2024-03-17T05:23:27;101940.91;;;10.07
18161;BMP280;9205;52.032;4.314;2024-03-17T05:25:56;101941.78;;;10.08
18161;BMP280;9205;52.032;4.314;2024-03-17T05:28:26;101942.63;;;10.10
18161;BMP280;9205;52.032;4.314;2024-03-17T05:30:54;101943.47;;;10.09
18161;BMP280;9205;52.032;4.314;2024-03-17T05:33:24;101935.00;;;10.08
18161;BMP280;9205;52.032;4.314;2024-03-17T05:35:54;101933.31;;;10.06
18161;BMP280;9205;52.032;4.314;2024-03-17T05:38:22;101932.47;;;10.02
18161;BMP280;9205;52.032;4.314;2024-03-17T05:40:54;101928.25;;;10.00
18161;BMP280;9205;52.032;4.314;2024-03-17T05:43:22;101934.19;;;9.99
18161;BMP280;9205;52.032;4.314;2024-03-17T05:45:51;101931.63;;;9.99
18161;BMP280;9205;52.032;4.314;2024-03-17T05:48:18;101927.38;;;9.99
18161;BMP280;9205;52.032;4.314;2024-03-17T05:50:46;101924.88;;;10.01
18161;BMP280;9205;52.032;4.314;2024-03-17T05:53:13;101929.94;;;9.98
18161;BMP280;9205;52.032;4.314;2024-03-17T05:55:40;101923.97;;;9.96
18161;BMP280;9205;52.032;4.314;2024-03-17T05:58:09;101927.38;;;9.96
18161;BMP280;9205;52.032;4.314;2024-03-17T06:00:36;101927.38;;;9.96
18161;BMP280;9205;52.032;4.314;2024-03-17T06:03:09;101934.16;;;9.97
18161;BMP280;9205;52.032;4.314;2024-03-17T06:05:39;101928.22;;;9.97
18161;BMP280;9205;52.032;4.314;2024-03-17T06:08:07;101922.31;;;9.99
18161;BMP280;9205;52.032;4.314;2024-03-17T06:10:42;101922.34;;;10.01
18161;BMP280;9205;52.032;4.314;2024-03-17T06:13:09;101934.16;;;10.03
18161;BMP280;9205;52.032;4.314;2024-03-17T06:15:39;101927.41;;;10.05
18161;BMP280;9205;52.032;4.314;2024-03-17T06:18:09;101933.31;;;10.09
18161;BMP280;9205;52.032;4.314;2024-03-17T06:20:41;101929.06;;;10.09
18161;BMP280;9205;52.032;4.314;2024-03-17T06:23:09;101938.38;;;10.12
18161;BMP280;9205;52.032;4.314;2024-03-17T06:25:41;101929.06;;;10.13
18161;BMP280;9205;52.032;4.314;2024-03-17T06:28:09;101933.28;;;10.12
18161;BMP280;9205;52.032;4.314;2024-03-17T06:30:39;101934.97;;;10.15
18161;BMP280;9205;52.032;4.314;2024-03-17T06:33:11;101942.56;;;10.18
18161;BMP280;9205;52.032;4.314;2024-03-17T06:35:38;101940.03;;;10.21
18161;BMP280;9205;52.032;4.314;2024-03-17T06:38:06;101947.66;;;10.24
18161;BMP280;9205;52.032;4.314;2024-03-17T06:40:35;101943.41;;;10.26
18161;BMP280;9205;52.032;4.314;2024-03-17T06:43:03;101939.16;;;10.30
18161;BMP280;9205;52.032;4.314;2024-03-17T06:45:31;101946.75;;;10.34
18161;BMP280;9205;52.032;4.314;2024-03-17T06:47:58;101930.69;;;10.38
18161;BMP280;9205;52.032;4.314;2024-03-17T06:50:28;101929.00;;;10.40
18161;BMP280;9205;52.032;4.314;2024-03-17T06:52:55;101931.50;;;10.42
18161;BMP280;9205;52.032;4.314;2024-03-17T06:55:22;101928.13;;;10.43
18161;BMP280;9205;52.032;4.314;2024-03-17T06:57:50;101926.44;;;10.42
18161;BMP280;9205;52.032;4.314;2024-03-17T07:00:18;101926.41;;;10.45
18161;BMP280;9205;52.032;4.314;2024-03-17T07:02:51;101932.31;;;10.50
18161;BMP280;9205;52.032;4.314;2024-03-17T07:05:18;101931.47;;;10.55
18161;BMP280;9205;52.032;4.314;2024-03-17T07:07:46;101932.28;;;10.57
18161;BMP280;9205;52.032;4.314;2024-03-17T07:10:14;101940.72;;;10.61
18161;BMP280;9205;52.032;4.314;2024-03-17T07:12:42;101955.13;;;10.66
18161;BMP280;9205;52.032;4.314;2024-03-17T07:15:09;101946.63;;;10.69
18161;BMP280;9205;52.032;4.314;2024-03-17T07:17:37;101953.44;;;10.67
18161;BMP280;9205;52.032;4.314;2024-03-17T07:20:05;101950.88;;;10.65
18161;BMP280;9205;52.032;4.314;2024-03-17T07:22:34;101948.34;;;10.68
18161;BMP280;9205;52.032;4.314;2024-03-17T07:25:04;101950.88;;;10.71
18161;BMP280;9205;52.032;4.314;2024-03-17T07:27:31;101958.47;;;10.74
18161;BMP280;9205;52.032;4.314;2024-03-17T07:29:58;101946.59;;;10.79
18161;BMP280;9205;52.032;4.314;2024-03-17T07:32:26;101944.88;;;10.83
18161;BMP280;9205;52.032;4.314;2024-03-17T07:34:53;101943.19;;;10.83
18161;BMP280;9205;52.032;4.314;2024-03-17T07:37:20;101951.66;;;10.85
18161;BMP280;9205;52.032;4.314;2024-03-17T07:39:47;101944.00;;;10.84
18161;BMP280;9205;52.032;4.314;2024-03-17T07:42:16;101941.47;;;10.82
18161;BMP280;9205;52.032;4.314;2024-03-17T07:44:44;101955.88;;;10.83
18161;BMP280;9205;52.032;4.314;2024-03-17T07:47:12;101964.31;;;10.88
18161;BMP280;9205;52.032;4.314;2024-03-17T07:49:39;101956.69;;;10.94
18161;BMP280;9205;52.032;4.314;2024-03-17T07:52:06;101952.44;;;10.93
18161;BMP280;9205;52.032;4.314;2024-03-17T07:54:33;101954.13;;;10.95
18161;BMP280;9205;52.032;4.314;2024-03-17T07:57:02;101943.91;;;10.98
18161;BMP280;9205;52.032;4.314;2024-03-17T07:59:31;101946.47;;;11.01
18161;BMP280;9205;52.032;4.314;2024-03-17T08:01:58;101953.25;;;11.01
18161;BMP280;9205;52.032;4.314;2024-03-17T08:04:25;101946.47;;;11.01
18161;BMP280;9205;52.032;4.314;2024-03-17T08:06:52;101947.31;;;11.00
18161;BMP280;9205;52.032;4.314;2024-03-17T08:09:20;101954.94;;;11.03
18161;BMP280;9205;52.032;4.314;2024-03-17T08:11:48;101950.66;;;11.07
18161;BMP280;9205;52.032;4.314;2024-03-17T08:14:15;101942.19;;;11.06
18161;BMP280;9205;52.032;4.314;2024-03-17T08:16:44;101937.09;;;11.05
18161;BMP280;9205;52.032;4.314;2024-03-17T08:19:11;101940.50;;;11.04
18161;BMP280;9205;52.032;4.314;2024-03-17T08:21:38;101932.88;;;11.04
18161;BMP280;9205;52.032;4.314;2024-03-17T08:24:06;101941.31;;;11.07
18161;BMP280;9205;52.032;4.314;2024-03-17T08:26:34;101934.53;;;11.11
18161;BMP280;9205;52.032;4.314;2024-03-17T08:29:01;101946.38;;;11.16
18161;BMP280;9205;52.032;4.314;2024-03-17T08:31:28;101943.78;;;11.22
18161;BMP280;9205;52.032;4.314;2024-03-17T08:33:57;101936.97;;;11.26
18161;BMP280;9205;52.032;4.314;2024-03-17T08:36:24;101936.97;;;11.26
18161;BMP280;9205;52.032;4.314;2024-03-17T08:38:51;101933.56;;;11.30
18161;BMP280;9205;52.032;4.314;2024-03-17T08:41:19;101936.91;;;11.33
18161;BMP280;9205;52.032;4.314;2024-03-17T08:43:46;101938.56;;;11.37
18161;BMP280;9205;52.032;4.314;2024-03-17T08:46:14;101937.69;;;11.43
18161;BMP280;9205;52.032;4.314;2024-03-17T08:48:41;101939.38;;;11.47
18161;BMP280;9205;52.032;4.314;2024-03-17T08:51:10;101946.13;;;11.54
18161;BMP280;9205;52.032;4.314;2024-03-17T08:53:37;101932.50;;;11.61
18161;BMP280;9205;52.032;4.314;2024-03-17T08:56:06;101929.88;;;11.70
18161;BMP280;9205;52.032;4.314;2024-03-17T08:58:34;101920.47;;;11.77
18161;BMP280;9205;52.032;4.314;2024-03-17T09:01:05;101916.13;;;11.84
18161;BMP280;9205;52.032;4.314;2024-03-17T09:03:33;101920.31;;;11.89
18161;BMP280;9205;52.032;4.314;2024-03-17T09:06:00;101914.38;;;11.93
18161;BMP280;9205;52.032;4.314;2024-03-17T09:08:29;101912.63;;;11.97
18161;BMP280;9205;52.032;4.314;2024-03-17T09:10:58;101908.31;;;12.02
18161;BMP280;9205;52.032;4.314;2024-03-17T09:13:25;101907.41;;;12.07
18161;BMP280;9205;52.032;4.314;2024-03-17T09:15:54;101905.69;;;12.08
18161;BMP280;9205;52.032;4.314;2024-03-17T09:18:23;101901.41;;;12.11
18161;BMP280;9205;52.032;4.314;2024-03-17T09:20:58;101897.94;;;12.17
18161;BMP280;9205;52.032;4.314;2024-03-17T09:23:25;101893.69;;;12.19
18161;BMP280;9205;52.032;4.314;2024-03-17T09:26:00;101896.22;;;12.20
18161;BMP280;9205;52.032;4.314;2024-03-17T09:28:28;101899.56;;;12.25
18161;BMP280;9205;52.032;4.314;2024-03-17T09:30:57;101896.13;;;12.26
18161;BMP280;9205;52.032;4.314;2024-03-17T09:33:26;101892.69;;;12.33
18161;BMP280;9205;52.032;4.314;2024-03-17T09:35:55;101884.88;;;12.45
18161;BMP280;9205;52.032;4.314;2024-03-17T09:38:23;101894.97;;;12.54
18161;BMP280;9205;52.032;4.314;2024-03-17T09:40:50;101889.00;;;12.55
18161;BMP280;9205;52.032;4.314;2024-03-17T09:43:21;101884.59;;;12.66
18161;BMP280;9205;52.032;4.314;2024-03-17T09:45:48;101871.78;;;12.72
18161;BMP280;9205;52.032;4.314;2024-03-17T09:48:17;101881.06;;;12.76
18161;BMP280;9205;52.032;4.314;2024-03-17T09:50:51;101874.97;;;12.84
18161;BMP280;9205;52.032;4.314;2024-03-17T09:53:24;101882.53;;;12.93
18161;BMP280;9205;52.032;4.314;2024-03-17T09:55:57;101881.56;;;13.02
18161;BMP280;9205;52.032;4.314;2024-03-17T09:58:26;101878.94;;;13.06
18161;BMP280;9205;52.032;4.314;2024-03-17T10:00:53;101882.28;;;13.10
18161;BMP280;9205;52.032;4.314;2024-03-17T10:03:45;101883.94;;;13.12
18161;BMP280;9205;52.032;4.314;2024-03-17T10:06:18;101876.16;;;13.20
18161;BMP280;9205;52.032;4.314;2024-03-17T10:08:48;101875.19;;;13.28
18161;BMP280;9205;52.032;4.314;2024-03-17T10:11:17;101880.13;;;13.37
18161;BMP280;9205;52.032;4.314;2024-03-17T10:13:59;101875.63;;;13.49
18161;BMP280;9205;52.032;4.314;2024-03-17T10:16:28;101874.63;;;13.59
18161;BMP280;9205;52.032;4.314;2024-03-17T10:19:15;101875.22;;;13.73
18161;BMP280;9205;52.032;4.314;2024-03-17T10:21:45;101870.72;;;13.86
18161;BMP280;9205;52.032;4.314;2024-03-17T10:24:20;101861.41;;;13.83
18161;BMP280;9205;52.032;4.314;2024-03-17T10:26:50;101863.06;;;13.87
18161;BMP280;9205;52.032;4.314;2024-03-17T10:29:25;101865.50;;;13.93
18161;BMP280;9205;52.032;4.314;2024-03-17T10:31:53;101862.06;;;13.94
18161;BMP280;9205;52.032;4.314;2024-03-17T10:34:23;101878.19;;;13.96
18161;BMP280;9205;52.032;4.314;2024-03-17T10:36:51;101868.03;;;13.93
18161;BMP280;9205;52.032;4.314;2024-03-17T10:39:28;101867.22;;;13.91
18161;BMP280;9205;52.032;4.314;2024-03-17T10:42:01;101859.81;;;13.79
18161;BMP280;9205;52.032;4.314;2024-03-17T10:44:31;101856.56;;;13.70
18161;BMP280;9205;52.032;4.314;2024-03-17T10:47:01;101859.09;;;13.70
18161;BMP280;9205;52.032;4.314;2024-03-17T10:49:31;101851.56;;;13.64
18161;BMP280;9205;52.032;4.314;2024-03-17T10:52:01;101853.22;;;13.66
18161;BMP280;9205;52.032;4.314;2024-03-17T10:54:31;101853.09;;;13.72
18161;BMP280;9205;52.032;4.314;2024-03-17T10:57:28;101853.88;;;13.77
18161;BMP280;9205;52.032;4.314;2024-03-17T11:00:00;101852.94;;;13.83
18161;BMP280;9205;52.032;4.314;2024-03-17T11:02:29;101854.69;;;13.79
18161;BMP280;9205;52.032;4.314;2024-03-17T11:05:00;101851.47;;;13.68
18161;BMP280;9205;52.032;4.314;2024-03-17T11:07:30;101848.19;;;13.63
18161;BMP280;9205;52.032;4.314;2024-03-17T11:09:59;101831.97;;;13.66
18161;BMP280;9205;52.032;4.314;2024-03-17T11:12:42;101832.75;;;13.69
18161;BMP280;9205;52.032;4.314;2024-03-17T11:15:40;101835.16;;;13.75
18161;BMP280;9205;52.032;4.314;2024-03-17T11:18:34;101834.28;;;13.78
18161;BMP280;9205;52.032;4.314;2024-03-17T11:21:05;101831.78;;;13.75
18161;BMP280;9205;52.032;4.314;2024-03-17T11:23:38;101830.06;;;13.75
18161;BMP280;9205;52.032;4.314;2024-03-17T11:26:07;101833.41;;;13.79
18161;BMP280;9205;52.032;4.314;2024-03-17T11:28:50;101830.75;;;13.83
18161;BMP280;9205;52.032;4.314;2024-03-17T11:31:40;101830.59;;;13.92
18161;BMP280;9205;52.032;4.314;2024-03-17T11:34:33;101827.03;;;13.99
18161;BMP280;9205;52.032;4.314;2024-03-17T11:37:03;101827.88;;;14.00
18161;BMP280;9205;52.032;4.314;2024-03-17T11:39:52;101820.09;;;14.04
18161;BMP280;9205;52.032;4.314;2024-03-17T11:42:23;101816.88;;;13.98
18161;BMP280;9205;52.032;4.314;2024-03-17T11:45:04;101812.59;;;13.98
18161;BMP280;9205;52.032;4.314;2024-03-17T11:47:37;101811.66;;;14.02
18161;BMP280;9205;52.032;4.314;2024-03-17T11:50:08;101816.63;;;14.08
18161;BMP280;9205;52.032;4.314;2024-03-17T11:52:37;101811.44;;;14.14
18161;BMP280;9205;52.032;4.314;2024-03-17T11:55:16;101800.28;;;14.18
18161;BMP280;9205;52.032;4.314;2024-03-17T11:57:44;101791.66;;;14.22
18161;BMP280;9205;52.032;4.314;2024-03-17T12:00:20;101790.66;;;14.29
18161;BMP280;9205;52.032;4.314;2024-03-17T12:02:50;101793.94;;;14.34
18161;BMP280;9205;52.032;4.314;2024-03-17T12:05:17;101790.47;;;14.38
18161;BMP280;9205;52.032;4.314;2024-03-17T12:07:44;101794.66;;;14.40
18161;BMP280;9205;52.032;4.314;2024-03-17T12:10:11;101778.31;;;14.47
18161;BMP280;9205;52.032;4.314;2024-03-17T12:12:40;101772.19;;;14.54
18161;BMP280;9205;52.032;4.314;2024-03-17T12:15:18;101780.63;;;14.58
18161;BMP280;9205;52.032;4.314;2024-03-17T12:17:45;101781.53;;;14.57
18161;BMP280;9205;52.032;4.314;2024-03-17T12:20:20;101767.06;;;14.54
18161;BMP280;9205;52.032;4.314;2024-03-17T12:22:48;101767.16;;;14.51
18161;BMP280;9205;52.032;4.314;2024-03-17T12:25:19;101765.41;;;14.52
18161;BMP280;9205;52.032;4.314;2024-03-17T12:27:49;101760.31;;;14.52
18161;BMP280;9205;52.032;4.314;2024-03-17T12:30:16;101759.38;;;14.56
18161;BMP280;9205;52.032;4.314;2024-03-17T12:32:45;101761.69;;;14.65
18161;BMP280;9205;52.032;4.314;2024-03-17T12:35:14;101759.13;;;14.66
18161;BMP280;9205;52.032;4.314;2024-03-17T12:37:45;101749.06;;;14.59
18161;BMP280;9205;52.032;4.314;2024-03-17T12:40:19;101750.47;;;14.70
18161;BMP280;9205;52.032;4.314;2024-03-17T12:42:49;101744.22;;;14.83
18161;BMP280;9205;52.032;4.314;2024-03-17T12:45:20;101741.53;;;14.88
18161;BMP280;9205;52.032;4.314;2024-03-17T12:47:48;101742.06;;;15.00
18161;BMP280;9205;52.032;4.314;2024-03-17T12:50:16;101738.66;;;14.99
18161;BMP280;9205;52.032;4.314;2024-03-17T12:52:53;101735.19;;;15.02
18161;BMP280;9205;52.032;4.314;2024-03-17T12:55:22;101747.06;;;15.04
18161;BMP280;9205;52.032;4.314;2024-03-17T12:58:08;101733.25;;;15.10
18161;BMP280;9205;52.032;4.314;2024-03-17T13:01:01;101732.50;;;15.06
18161;BMP280;9205;52.032;4.314;2024-03-17T13:03:30;101722.19;;;15.09
18161;BMP280;9205;52.032;4.314;2024-03-17T13:06:00;101728.84;;;15.16
18161;BMP280;9205;52.032;4.314;2024-03-17T13:08:30;101720.34;;;15.14
18161;BMP280;9205;52.032;4.314;2024-03-17T13:10:57;101713.31;;;15.22
18161;BMP280;9205;52.032;4.314;2024-03-17T13:13:24;101712.94;;;15.37
18161;BMP280;9205;52.032;4.314;2024-03-17T13:15:52;101695.38;;;15.54
18161;BMP280;9205;52.032;4.314;2024-03-17T13:18:20;101699.38;;;15.64
18161;BMP280;9205;52.032;4.314;2024-03-17T13:20:49;101697.72;;;15.62
18161;BMP280;9205;52.032;4.314;2024-03-17T13:23:17;101689.38;;;15.55
18161;BMP280;9205;52.032;4.314;2024-03-17T13:25:47;101682.41;;;15.60
18161;BMP280;9205;52.032;4.314;2024-03-17T13:28:14;101685.72;;;15.64
18161;BMP280;9205;52.032;4.314;2024-03-17T13:30:41;101681.34;;;15.67
18161;BMP280;9205;52.032;4.314;2024-03-17T13:33:10;101676.41;;;15.61
18161;BMP280;9205;52.032;4.314;2024-03-17T13:35:39;101676.53;;;15.57
18161;BMP280;9205;52.032;4.314;2024-03-17T13:38:08;101678.28;;;15.55
18161;BMP280;9205;52.032;4.314;2024-03-17T13:40:37;101677.53;;;15.51
18161;BMP280;9205;52.032;4.314;2024-03-17T13:43:06;101670.72;;;15.50
18161;BMP280;9205;52.032;4.314;2024-03-17T13:45:39;101674.91;;;15.54
18161;BMP280;9205;52.032;4.314;2024-03-17T13:48:07;101677.47;;;15.54
18161;BMP280;9205;52.032;4.314;2024-03-17T13:50:37;101663.78;;;15.55
18161;BMP280;9205;52.032;4.314;2024-03-17T13:53:05;101661.16;;;15.57
18161;BMP280;9205;52.032;4.314;2024-03-17T13:55:32;101662.09;;;15.54
18161;BMP280;9205;52.032;4.314;2024-03-17T13:58:01;101659.53;;;15.54
18161;BMP280;9205;52.032;4.314;2024-03-17T14:00:32;101660.53;;;15.49
18161;BMP280;9205;52.032;4.314;2024-03-17T14:03:02;101656.34;;;15.46
18161;BMP280;9205;52.032;4.314;2024-03-17T14:05:29;101658.09;;;15.44
18161;BMP280;9205;52.032;4.314;2024-03-17T14:07:58;101654.59;;;15.48
18161;BMP280;9205;52.032;4.314;2024-03-17T14:10:26;101644.28;;;15.50
18161;BMP280;9205;52.032;4.314;2024-03-17T14:12:54;101644.34;;;15.48
18161;BMP280;9205;52.032;4.314;2024-03-17T14:15:22;101642.84;;;15.41
18161;BMP280;9205;52.032;4.314;2024-03-17T14:17:52;101646.28;;;15.40
18161;BMP280;9205;52.032;4.314;2024-03-17T14:20:19;101647.38;;;15.32
18161;BMP280;9205;52.032;4.314;2024-03-17T14:22:48;101644.06;;;15.28
18161;BMP280;9205;52.032;4.314;2024-03-17T14:25:19;101643.34;;;15.23